sensor_id;sensor_type;location;lat;lon;timestamp;P1;durP1;ratioP1;P2;durP2;ratioP2
64520;SDS011;50896;46.714;17.322;2023-05-10T00:01:32;6.32;;;4.20;;
64520;SDS011;50896;46.714;17.322;2023-05-10T00:03:59;5.35;;;4.18;;
64520;SDS011;50896;46.714;17.322;2023-05-10T00:06:26;4.72;;;3.72;;
64520;SDS011;50896;46.714;17.322;2023-05-10T00:08:54;4.38;;;3.50;;
64520;SDS011;50896;46.714;17.322;2023-05-10T00:11:21;5.45;;;3.90;;
64520;SDS011;50896;46.714;17.322;2023-05-10T00:13:48;6.60;;;3.20;;
64520;SDS011;50896;46.714;17.322;2023-05-10T00:16:15;4.55;;;3.53;;
64520;SDS011;50896;46.714;17.322;2023-05-10T00:18:42;5.43;;;3.60;;
64520;SDS011;50896;46.714;17.322;2023-05-10T00:21:09;4.78;;;3.85;;
64520;SDS011;50896;46.714;17.322;2023-05-10T00:23:35;4.50;;;3.92;;
64520;SDS011;50896;46.714;17.322;2023-05-10T00:26:02;5.03;;;3.63;;
64520;SDS011;50896;46.714;17.322;2023-05-10T00:28:29;5.25;;;4.00;;
64520;SDS011;50896;46.714;17.322;2023-05-10T00:30:56;5.57;;;4.18;;
64520;SDS011;50896;46.714;17.322;2023-05-10T00:33:23;5.35;;;4.28;;
64520;SDS011;50896;46.714;17.322;2023-05-10T00:35:50;5.82;;;4.25;;
64520;SDS011;50896;46.714;17.322;2023-05-10T00:38:17;6.75;;;4.05;;
64520;SDS011;50896;46.714;17.322;2023-05-10T00:40:43;6.18;;;4.30;;
64520;SDS011;50896;46.714;17.322;2023-05-10T00:43:18;6.55;;;4.70;;
64520;SDS011;50896;46.714;17.322;2023-05-10T00:45:46;7.75;;;4.55;;
64520;SDS011;50896;46.714;17.322;2023-05-10T00:48:13;6.20;;;4.68;;
64520;SDS011;50896;46.714;17.322;2023-05-10T00:50:40;6.28;;;4.55;;
64520;SDS011;50896;46.714;17.322;2023-05-10T00:53:07;6.78;;;4.68;;
64520;SDS011;50896;46.714;17.322;2023-05-10T00:55:35;6.03;;;4.30;;
64520;SDS011;50896;46.714;17.322;2023-05-10T00:58:02;9.10;;;4.90;;
64520;SDS011;50896;46.714;17.322;2023-05-10T01:00:29;6.53;;;4.50;;
64520;SDS011;50896;46.714;17.322;2023-05-10T01:02:56;7.07;;;4.57;;
64520;SDS011;50896;46.714;17.322;2023-05-10T01:05:24;5.95;;;4.55;;
64520;SDS011;50896;46.714;17.322;2023-05-10T01:07:51;8.55;;;5.10;;
64520;SDS011;50896;46.714;17.322;2023-05-10T01:10:18;6.88;;;4.45;;
64520;SDS011;50896;46.714;17.322;2023-05-10T01:12:45;6.22;;;4.55;;
64520;SDS011;50896;46.714;17.322;2023-05-10T01:15:14;7.60;;;4.63;;
64520;SDS011;50896;46.714;17.322;2023-05-10T01:20:12;6.68;;;4.35;;
64520;SDS011;50896;46.714;17.322;2023-05-10T01:25:39;8.05;;;5.22;;
64520;SDS011;50896;46.714;17.322;2023-05-10T01:34:25;5.53;;;4.07;;
64520;SDS011;50896;46.714;17.322;2023-05-10T01:36:55;7.05;;;5.05;;
64520;SDS011;50896;46.714;17.322;2023-05-10T01:39:33;6.50;;;4.68;;
64520;SDS011;50896;46.714;17.322;2023-05-10T01:42:11;5.93;;;5.22;;
64520;SDS011;50896;46.714;17.322;2023-05-10T01:50:18;9.05;;;4.97;;
64520;SDS011;50896;46.714;17.322;2023-05-10T01:52:53;10.40;;;4.95;;
64520;SDS011;50896;46.714;17.322;2023-05-10T01:55:22;8.48;;;4.85;;
64520;SDS011;50896;46.714;17.322;2023-05-10T01:57:53;7.20;;;5.43;;
64520;SDS011;50896;46.714;17.322;2023-05-10T02:00:26;7.55;;;5.47;;
64520;SDS011;50896;46.714;17.322;2023-05-10T02:02:55;7.07;;;5.22;;
64520;SDS011;50896;46.714;17.322;2023-05-10T02:05:22;7.15;;;5.03;;
64520;SDS011;50896;46.714;17.322;2023-05-10T02:07:51;6.07;;;4.45;;
64520;SDS011;50896;46.714;17.322;2023-05-10T02:10:19;6.65;;;5.20;;
64520;SDS011;50896;46.714;17.322;2023-05-10T02:12:47;6.35;;;5.18;;
64520;SDS011;50896;46.714;17.322;2023-05-10T02:15:18;7.50;;;5.10;;
64520;SDS011;50896;46.714;17.322;2023-05-10T02:17:51;7.38;;;5.20;;
64520;SDS011;50896;46.714;17.322;2023-05-10T02:20:20;8.32;;;5.28;;
64520;SDS011;50896;46.714;17.322;2023-05-10T02:22:50;6.25;;;4.53;;
64520;SDS011;50896;46.714;17.322;2023-05-10T02:25:19;6.50;;;4.50;;
64520;SDS011;50896;46.714;17.322;2023-05-10T02:27:48;7.40;;;4.88;;
64520;SDS011;50896;46.714;17.322;2023-05-10T02:30:15;7.38;;;5.60;;
64520;SDS011;50896;46.714;17.322;2023-05-10T02:32:44;7.07;;;4.95;;
64520;SDS011;50896;46.714;17.322;2023-05-10T02:35:12;9.27;;;5.25;;
64520;SDS011;50896;46.714;17.322;2023-05-10T02:37:40;8.70;;;5.38;;
64520;SDS011;50896;46.714;17.322;2023-05-10T02:40:08;9.35;;;5.43;;
64520;SDS011;50896;46.714;17.322;2023-05-10T02:42:36;9.27;;;5.50;;
64520;SDS011;50896;46.714;17.322;2023-05-10T02:45:07;6.53;;;5.20;;
64520;SDS011;50896;46.714;17.322;2023-05-10T02:47:38;7.03;;;5.45;;
64520;SDS011;50896;46.714;17.322;2023-05-10T02:50:05;7.43;;;5.13;;
64520;SDS011;50896;46.714;17.322;2023-05-10T02:52:38;7.03;;;5.05;;
64520;SDS011;50896;46.714;17.322;2023-05-10T02:55:16;10.02;;;5.75;;
64520;SDS011;50896;46.714;17.322;2023-05-10T02:57:48;7.85;;;5.57;;
64520;SDS011;50896;46.714;17.322;2023-05-10T03:00:20;10.77;;;5.63;;
64520;SDS011;50896;46.714;17.322;2023-05-10T03:02:47;7.07;;;5.18;;
64520;SDS011;50896;46.714;17.322;2023-05-10T03:05:14;10.23;;;5.68;;
64520;SDS011;50896;46.714;17.322;2023-05-10T03:07:41;7.15;;;5.32;;
64520;SDS011;50896;46.714;17.322;2023-05-10T03:10:07;9.10;;;5.55;;
64520;SDS011;50896;46.714;17.322;2023-05-10T03:12:47;6.72;;;5.20;;
64520;SDS011;50896;46.714;17.322;2023-05-10T03:15:19;7.07;;;5.35;;
64520;SDS011;50896;46.714;17.322;2023-05-10T03:17:56;8.10;;;5.45;;
64520;SDS011;50896;46.714;17.322;2023-05-10T03:20:33;6.88;;;5.25;;
64520;SDS011;50896;46.714;17.322;2023-05-10T03:25:52;8.07;;;4.88;;
64520;SDS011;50896;46.714;17.322;2023-05-10T03:28:20;6.63;;;5.35;;
64520;SDS011;50896;46.714;17.322;2023-05-10T03:30:47;7.15;;;5.20;;
64520;SDS011;50896;46.714;17.322;2023-05-10T03:33:16;8.25;;;5.70;;
64520;SDS011;50896;46.714;17.322;2023-05-10T03:35:45;11.38;;;5.40;;
64520;SDS011;50896;46.714;17.322;2023-05-10T03:38:13;7.75;;;5.68;;
64520;SDS011;50896;46.714;17.322;2023-05-10T03:40:40;10.30;;;5.70;;
64520;SDS011;50896;46.714;17.322;2023-05-10T03:43:07;7.75;;;5.63;;
64520;SDS011;50896;46.714;17.322;2023-05-10T03:45:34;7.57;;;5.13;;
64520;SDS011;50896;46.714;17.322;2023-05-10T03:48:02;7.03;;;5.35;;
64520;SDS011;50896;46.714;17.322;2023-05-10T03:50:29;7.88;;;5.72;;
64520;SDS011;50896;46.714;17.322;2023-05-10T03:52:56;7.47;;;5.55;;
64520;SDS011;50896;46.714;17.322;2023-05-10T03:55:23;7.28;;;5.22;;
64520;SDS011;50896;46.714;17.322;2023-05-10T03:57:50;6.63;;;5.53;;
64520;SDS011;50896;46.714;17.322;2023-05-10T04:00:17;6.93;;;5.10;;
64520;SDS011;50896;46.714;17.322;2023-05-10T04:02:48;6.88;;;5.13;;
64520;SDS011;50896;46.714;17.322;2023-05-10T04:05:17;7.55;;;5.57;;
64520;SDS011;50896;46.714;17.322;2023-05-10T04:07:44;8.10;;;5.53;;
64520;SDS011;50896;46.714;17.322;2023-05-10T04:10:11;6.78;;;5.22;;
64520;SDS011;50896;46.714;17.322;2023-05-10T04:12:38;7.50;;;4.55;;
64520;SDS011;50896;46.714;17.322;2023-05-10T04:15:05;7.35;;;4.85;;
64520;SDS011;50896;46.714;17.322;2023-05-10T04:17:33;8.55;;;4.85;;
64520;SDS011;50896;46.714;17.322;2023-05-10T04:20:00;6.50;;;5.20;;
64520;SDS011;50896;46.714;17.322;2023-05-10T04:22:26;8.52;;;5.45;;
64520;SDS011;50896;46.714;17.322;2023-05-10T04:24:55;5.93;;;4.68;;
64520;SDS011;50896;46.714;17.322;2023-05-10T04:27:22;6.47;;;5.00;;
64520;SDS011;50896;46.714;17.322;2023-05-10T04:29:48;8.18;;;4.93;;
64520;SDS011;50896;46.714;17.322;2023-05-10T04:32:15;7.40;;;5.13;;
64520;SDS011;50896;46.714;17.322;2023-05-10T04:34:43;6.72;;;5.18;;
64520;SDS011;50896;46.714;17.322;2023-05-10T04:37:10;7.50;;;5.50;;
64520;SDS011;50896;46.714;17.322;2023-05-10T04:39:37;6.97;;;4.82;;
64520;SDS011;50896;46.714;17.322;2023-05-10T04:42:06;7.18;;;5.30;;
64520;SDS011;50896;46.714;17.322;2023-05-10T04:44:33;5.32;;;4.50;;
64520;SDS011;50896;46.714;17.322;2023-05-10T04:47:00;9.18;;;5.45;;
64520;SDS011;50896;46.714;17.322;2023-05-10T04:49:28;6.18;;;4.90;;
64520;SDS011;50896;46.714;17.322;2023-05-10T04:51:56;6.97;;;4.88;;
64520;SDS011;50896;46.714;17.322;2023-05-10T04:54:22;7.03;;;5.57;;
64520;SDS011;50896;46.714;17.322;2023-05-10T04:56:49;10.93;;;5.00;;
64520;SDS011;50896;46.714;17.322;2023-05-10T04:59:16;7.15;;;5.13;;
64520;SDS011;50896;46.714;17.322;2023-05-10T05:01:43;6.13;;;4.80;;
64520;SDS011;50896;46.714;17.322;2023-05-10T05:04:10;7.43;;;4.63;;
64520;SDS011;50896;46.714;17.322;2023-05-10T05:06:37;6.57;;;4.72;;
64520;SDS011;50896;46.714;17.322;2023-05-10T05:09:04;7.38;;;5.30;;
64520;SDS011;50896;46.714;17.322;2023-05-10T05:11:30;5.85;;;4.60;;
64520;SDS011;50896;46.714;17.322;2023-05-10T05:13:57;7.28;;;5.15;;
64520;SDS011;50896;46.714;17.322;2023-05-10T05:16:25;6.85;;;5.35;;
64520;SDS011;50896;46.714;17.322;2023-05-10T05:18:52;6.80;;;4.75;;
64520;SDS011;50896;46.714;17.322;2023-05-10T05:21:19;6.88;;;5.15;;
64520;SDS011;50896;46.714;17.322;2023-05-10T05:23:46;6.22;;;4.55;;
64520;SDS011;50896;46.714;17.322;2023-05-10T05:26:13;10.95;;;4.85;;
64520;SDS011;50896;46.714;17.322;2023-05-10T05:28:41;6.55;;;4.93;;
64520;SDS011;50896;46.714;17.322;2023-05-10T05:31:08;7.10;;;4.70;;
64520;SDS011;50896;46.714;17.322;2023-05-10T05:33:35;7.63;;;4.90;;
64520;SDS011;50896;46.714;17.322;2023-05-10T05:36:03;8.73;;;5.05;;
64520;SDS011;50896;46.714;17.322;2023-05-10T05:38:31;6.57;;;4.85;;
64520;SDS011;50896;46.714;17.322;2023-05-10T05:40:58;9.52;;;4.40;;
64520;SDS011;50896;46.714;17.322;2023-05-10T05:43:25;6.53;;;4.68;;
64520;SDS011;50896;46.714;17.322;2023-05-10T05:45:52;6.07;;;4.68;;
64520;SDS011;50896;46.714;17.322;2023-05-10T05:48:20;6.68;;;4.95;;
64520;SDS011;50896;46.714;17.322;2023-05-10T05:50:47;6.07;;;4.72;;
64520;SDS011;50896;46.714;17.322;2023-05-10T05:53:14;6.75;;;4.93;;
64520;SDS011;50896;46.714;17.322;2023-05-10T05:55:50;6.28;;;4.50;;
64520;SDS011;50896;46.714;17.322;2023-05-10T05:58:21;5.65;;;4.70;;
64520;SDS011;50896;46.714;17.322;2023-05-10T06:00:48;8.65;;;5.10;;
64520;SDS011;50896;46.714;17.322;2023-05-10T06:03:15;6.95;;;4.47;;
64520;SDS011;50896;46.714;17.322;2023-05-10T06:05:42;8.80;;;4.93;;
64520;SDS011;50896;46.714;17.322;2023-05-10T06:08:09;6.38;;;5.03;;
64520;SDS011;50896;46.714;17.322;2023-05-10T06:10:37;10.27;;;5.05;;
64520;SDS011;50896;46.714;17.322;2023-05-10T06:13:04;9.50;;;4.38;;
64520;SDS011;50896;46.714;17.322;2023-05-10T06:15:31;4.70;;;4.10;;
64520;SDS011;50896;46.714;17.322;2023-05-10T06:17:58;6.50;;;4.53;;
64520;SDS011;50896;46.714;17.322;2023-05-10T06:20:25;6.00;;;4.55;;
64520;SDS011;50896;46.714;17.322;2023-05-10T06:22:52;6.75;;;4.50;;
64520;SDS011;50896;46.714;17.322;2023-05-10T06:25:19;6.22;;;4.18;;
64520;SDS011;50896;46.714;17.322;2023-05-10T06:27:46;7.20;;;4.50;;
64520;SDS011;50896;46.714;17.322;2023-05-10T06:30:18;5.97;;;4.55;;
64520;SDS011;50896;46.714;17.322;2023-05-10T06:32:45;6.50;;;4.70;;
64520;SDS011;50896;46.714;17.322;2023-05-10T06:35:12;8.82;;;4.55;;
64520;SDS011;50896;46.714;17.322;2023-05-10T06:37:39;5.78;;;4.28;;
64520;SDS011;50896;46.714;17.322;2023-05-10T06:40:06;7.72;;;4.40;;
64520;SDS011;50896;46.714;17.322;2023-05-10T06:42:33;9.80;;;5.47;;
64520;SDS011;50896;46.714;17.322;2023-05-10T06:45:01;5.50;;;3.95;;
64520;SDS011;50896;46.714;17.322;2023-05-10T06:47:29;5.05;;;3.60;;
64520;SDS011;50896;46.714;17.322;2023-05-10T06:49:56;4.70;;;3.13;;
64520;SDS011;50896;46.714;17.322;2023-05-10T06:52:23;6.90;;;3.55;;
64520;SDS011;50896;46.714;17.322;2023-05-10T06:54:50;5.65;;;3.10;;
64520;SDS011;50896;46.714;17.322;2023-05-10T06:57:16;5.10;;;3.35;;
64520;SDS011;50896;46.714;17.322;2023-05-10T06:59:57;7.32;;;3.60;;
64520;SDS011;50896;46.714;17.322;2023-05-10T07:02:27;5.55;;;3.30;;
64520;SDS011;50896;46.714;17.322;2023-05-10T07:04:54;6.07;;;3.17;;
64520;SDS011;50896;46.714;17.322;2023-05-10T07:07:21;5.30;;;3.10;;
64520;SDS011;50896;46.714;17.322;2023-05-10T07:09:48;4.43;;;3.10;;
64520;SDS011;50896;46.714;17.322;2023-05-10T07:12:16;4.03;;;2.78;;
64520;SDS011;50896;46.714;17.322;2023-05-10T07:14:43;4.53;;;2.58;;
64520;SDS011;50896;46.714;17.322;2023-05-10T07:17:10;5.00;;;2.72;;
64520;SDS011;50896;46.714;17.322;2023-05-10T07:19:37;5.95;;;2.63;;
64520;SDS011;50896;46.714;17.322;2023-05-10T07:22:12;4.45;;;2.67;;
64520;SDS011;50896;46.714;17.322;2023-05-10T07:24:39;3.70;;;2.40;;
64520;SDS011;50896;46.714;17.322;2023-05-10T07:27:06;3.80;;;2.38;;
64520;SDS011;50896;46.714;17.322;2023-05-10T07:29:33;4.28;;;2.30;;
64520;SDS011;50896;46.714;17.322;2023-05-10T07:32:00;6.38;;;2.55;;
64520;SDS011;50896;46.714;17.322;2023-05-10T07:34:28;6.57;;;2.42;;
64520;SDS011;50896;46.714;17.322;2023-05-10T07:36:57;6.63;;;2.20;;
64520;SDS011;50896;46.714;17.322;2023-05-10T07:39:25;3.10;;;2.65;;
64520;SDS011;50896;46.714;17.322;2023-05-10T07:41:54;4.75;;;2.40;;
64520;SDS011;50896;46.714;17.322;2023-05-10T07:44:21;4.28;;;2.25;;
64520;SDS011;50896;46.714;17.322;2023-05-10T07:46:48;2.63;;;2.22;;
64520;SDS011;50896;46.714;17.322;2023-05-10T07:49:15;5.20;;;2.10;;
64520;SDS011;50896;46.714;17.322;2023-05-10T07:51:42;4.03;;;2.20;;
64520;SDS011;50896;46.714;17.322;2023-05-10T07:54:09;2.35;;;1.92;;
64520;SDS011;50896;46.714;17.322;2023-05-10T07:56:36;4.00;;;2.03;;
64520;SDS011;50896;46.714;17.322;2023-05-10T07:59:03;4.55;;;2.20;;
64520;SDS011;50896;46.714;17.322;2023-05-10T08:01:33;3.38;;;2.00;;
64520;SDS011;50896;46.714;17.322;2023-05-10T08:04:01;3.97;;;2.40;;
64520;SDS011;50896;46.714;17.322;2023-05-10T08:06:28;3.88;;;2.35;;
64520;SDS011;50896;46.714;17.322;2023-05-10T08:08:56;3.65;;;2.40;;
64520;SDS011;50896;46.714;17.322;2023-05-10T08:11:23;3.45;;;2.28;;
64520;SDS011;50896;46.714;17.322;2023-05-10T08:13:50;3.70;;;2.20;;
64520;SDS011;50896;46.714;17.322;2023-05-10T08:16:18;3.30;;;2.45;;
64520;SDS011;50896;46.714;17.322;2023-05-10T08:18:46;3.83;;;2.45;;
64520;SDS011;50896;46.714;17.322;2023-05-10T08:21:14;4.03;;;2.17;;
64520;SDS011;50896;46.714;17.322;2023-05-10T08:23:41;3.38;;;2.28;;
64520;SDS011;50896;46.714;17.322;2023-05-10T08:26:10;3.03;;;1.97;;
64520;SDS011;50896;46.714;17.322;2023-05-10T08:28:37;3.92;;;2.20;;
64520;SDS011;50896;46.714;17.322;2023-05-10T08:31:04;3.03;;;2.10;;
64520;SDS011;50896;46.714;17.322;2023-05-10T08:33:32;3.13;;;2.10;;
64520;SDS011;50896;46.714;17.322;2023-05-10T08:35:59;3.60;;;2.33;;
64520;SDS011;50896;46.714;17.322;2023-05-10T08:38:25;3.13;;;2.22;;
64520;SDS011;50896;46.714;17.322;2023-05-10T08:40:53;4.22;;;2.50;;
64520;SDS011;50896;46.714;17.322;2023-05-10T08:43:28;4.05;;;2.33;;
64520;SDS011;50896;46.714;17.322;2023-05-10T08:45:56;4.18;;;2.55;;
64520;SDS011;50896;46.714;17.322;2023-05-10T08:48:27;5.43;;;2.30;;
64520;SDS011;50896;46.714;17.322;2023-05-10T08:50:56;3.40;;;2.10;;
64520;SDS011;50896;46.714;17.322;2023-05-10T08:55:53;3.03;;;2.20;;
64520;SDS011;50896;46.714;17.322;2023-05-10T08:58:22;3.28;;;2.10;;
64520;SDS011;50896;46.714;17.322;2023-05-10T09:00:49;4.55;;;2.05;;
64520;SDS011;50896;46.714;17.322;2023-05-10T09:03:19;3.97;;;2.50;;
64520;SDS011;50896;46.714;17.322;2023-05-10T09:05:46;2.35;;;2.10;;
64520;SDS011;50896;46.714;17.322;2023-05-10T09:08:13;3.60;;;2.42;;
64520;SDS011;50896;46.714;17.322;2023-05-10T09:10:43;3.67;;;2.42;;
64520;SDS011;50896;46.714;17.322;2023-05-10T09:13:10;3.20;;;2.20;;
64520;SDS011;50896;46.714;17.322;2023-05-10T09:15:40;4.30;;;2.40;;
64520;SDS011;50896;46.714;17.322;2023-05-10T09:18:07;4.53;;;2.50;;
64520;SDS011;50896;46.714;17.322;2023-05-10T09:20:34;3.10;;;2.30;;
64520;SDS011;50896;46.714;17.322;2023-05-10T09:23:01;4.10;;;2.42;;
64520;SDS011;50896;46.714;17.322;2023-05-10T09:25:27;3.45;;;2.10;;
64520;SDS011;50896;46.714;17.322;2023-05-10T09:27:54;7.10;;;2.40;;
64520;SDS011;50896;46.714;17.322;2023-05-10T09:30:28;4.18;;;2.45;;
64520;SDS011;50896;46.714;17.322;2023-05-10T09:32:57;5.65;;;2.65;;
64520;SDS011;50896;46.714;17.322;2023-05-10T09:35:26;2.33;;;2.05;;
64520;SDS011;50896;46.714;17.322;2023-05-10T09:37:59;5.65;;;2.30;;
64520;SDS011;50896;46.714;17.322;2023-05-10T09:40:28;3.38;;;2.22;;
64520;SDS011;50896;46.714;17.322;2023-05-10T09:42:57;2.23;;;2.00;;
64520;SDS011;50896;46.714;17.322;2023-05-10T09:45:29;5.78;;;2.13;;
64520;SDS011;50896;46.714;17.322;2023-05-10T09:47:57;4.85;;;2.45;;
64520;SDS011;50896;46.714;17.322;2023-05-10T09:50:25;3.42;;;2.35;;
64520;SDS011;50896;46.714;17.322;2023-05-10T09:52:54;3.45;;;2.28;;
64520;SDS011;50896;46.714;17.322;2023-05-10T09:55:26;4.13;;;2.30;;
64520;SDS011;50896;46.714;17.322;2023-05-10T09:58:11;4.85;;;2.28;;
64520;SDS011;50896;46.714;17.322;2023-05-10T10:00:40;4.32;;;1.98;;
64520;SDS011;50896;46.714;17.322;2023-05-10T10:03:12;3.53;;;2.17;;
64520;SDS011;50896;46.714;17.322;2023-05-10T10:08:09;5.00;;;2.10;;
64520;SDS011;50896;46.714;17.322;2023-05-10T10:10:36;2.95;;;2.08;;
64520;SDS011;50896;46.714;17.322;2023-05-10T10:13:03;3.38;;;2.25;;
64520;SDS011;50896;46.714;17.322;2023-05-10T10:15:31;4.18;;;2.25;;
64520;SDS011;50896;46.714;17.322;2023-05-10T10:17:59;2.78;;;2.10;;
64520;SDS011;50896;46.714;17.322;2023-05-10T10:20:28;5.60;;;2.08;;
64520;SDS011;50896;46.714;17.322;2023-05-10T10:22:55;2.20;;;2.00;;
64520;SDS011;50896;46.714;17.322;2023-05-10T10:25:22;5.72;;;2.25;;
64520;SDS011;50896;46.714;17.322;2023-05-10T10:35:58;4.45;;;2.50;;
64520;SDS011;50896;46.714;17.322;2023-05-10T10:38:35;2.92;;;2.47;;
64520;SDS011;50896;46.714;17.322;2023-05-10T10:41:27;3.55;;;2.28;;
64520;SDS011;50896;46.714;17.322;2023-05-10T10:49:42;4.53;;;2.85;;
64520;SDS011;50896;46.714;17.322;2023-05-10T10:52:15;3.63;;;2.63;;
64520;SDS011;50896;46.714;17.322;2023-05-10T10:55:07;5.30;;;3.50;;
64520;SDS011;50896;46.714;17.322;2023-05-10T11:00:31;4.82;;;2.60;;
64520;SDS011;50896;46.714;17.322;2023-05-10T11:03:09;4.47;;;2.50;;
64520;SDS011;50896;46.714;17.322;2023-05-10T11:05:46;3.72;;;2.58;;
64520;SDS011;50896;46.714;17.322;2023-05-10T11:08:27;5.82;;;2.30;;
64520;SDS011;50896;46.714;17.322;2023-05-10T11:13:39;7.68;;;2.28;;
64520;SDS011;50896;46.714;17.322;2023-05-10T11:18:39;4.38;;;2.22;;
64520;SDS011;50896;46.714;17.322;2023-05-10T11:21:08;4.80;;;2.00;;
64520;SDS011;50896;46.714;17.322;2023-05-10T11:26:09;4.97;;;2.08;;
64520;SDS011;50896;46.714;17.322;2023-05-10T11:28:41;3.97;;;2.53;;
64520;SDS011;50896;46.714;17.322;2023-05-10T11:31:15;12.23;;;2.22;;
64520;SDS011;50896;46.714;17.322;2023-05-10T11:33:50;3.78;;;1.92;;
64520;SDS011;50896;46.714;17.322;2023-05-10T11:36:26;5.53;;;1.90;;
64520;SDS011;50896;46.714;17.322;2023-05-10T11:38:54;6.82;;;1.85;;
64520;SDS011;50896;46.714;17.322;2023-05-10T11:41:23;2.53;;;1.87;;
64520;SDS011;50896;46.714;17.322;2023-05-10T11:43:51;4.10;;;1.60;;
64520;SDS011;50896;46.714;17.322;2023-05-10T11:46:20;3.75;;;1.70;;
64520;SDS011;50896;46.714;17.322;2023-05-10T11:48:50;2.50;;;1.80;;
64520;SDS011;50896;46.714;17.322;2023-05-10T11:51:22;4.93;;;1.88;;
64520;SDS011;50896;46.714;17.322;2023-05-10T11:53:52;7.90;;;1.98;;
64520;SDS011;50896;46.714;17.322;2023-05-10T11:56:21;4.53;;;1.80;;
64520;SDS011;50896;46.714;17.322;2023-05-10T11:58:52;1.85;;;1.70;;
64520;SDS011;50896;46.714;17.322;2023-05-10T12:01:23;3.78;;;1.52;;
64520;SDS011;50896;46.714;17.322;2023-05-10T12:03:54;4.15;;;1.55;;
64520;SDS011;50896;46.714;17.322;2023-05-10T12:06:29;3.80;;;1.75;;
64520;SDS011;50896;46.714;17.322;2023-05-10T12:08:59;3.08;;;1.63;;
64520;SDS011;50896;46.714;17.322;2023-05-10T12:11:26;4.28;;;2.03;;
64520;SDS011;50896;46.714;17.322;2023-05-10T12:13:55;2.45;;;1.77;;
64520;SDS011;50896;46.714;17.322;2023-05-10T12:16:28;3.75;;;2.67;;
64520;SDS011;50896;46.714;17.322;2023-05-10T12:18:56;3.67;;;2.15;;
64520;SDS011;50896;46.714;17.322;2023-05-10T12:21:25;4.30;;;2.20;;
64520;SDS011;50896;46.714;17.322;2023-05-10T12:23:53;5.28;;;1.67;;
64520;SDS011;50896;46.714;17.322;2023-05-10T12:26:22;3.83;;;1.65;;
64520;SDS011;50896;46.714;17.322;2023-05-10T12:28:49;3.58;;;1.73;;
64520;SDS011;50896;46.714;17.322;2023-05-10T12:31:16;1.92;;;1.67;;
64520;SDS011;50896;46.714;17.322;2023-05-10T12:33:43;2.05;;;1.42;;
64520;SDS011;50896;46.714;17.322;2023-05-10T12:36:12;4.00;;;1.67;;
64520;SDS011;50896;46.714;17.322;2023-05-10T12:38:41;2.90;;;1.70;;
64520;SDS011;50896;46.714;17.322;2023-05-10T12:41:10;2.53;;;1.65;;
64520;SDS011;50896;46.714;17.322;2023-05-10T12:43:38;4.85;;;1.90;;
64520;SDS011;50896;46.714;17.322;2023-05-10T12:46:09;4.65;;;1.52;;
64520;SDS011;50896;46.714;17.322;2023-05-10T12:48:38;5.72;;;1.70;;
64520;SDS011;50896;46.714;17.322;2023-05-10T12:51:05;2.47;;;1.40;;
64520;SDS011;50896;46.714;17.322;2023-05-10T12:53:35;2.63;;;1.40;;
64520;SDS011;50896;46.714;17.322;2023-05-10T12:56:03;2.88;;;1.55;;
64520;SDS011;50896;46.714;17.322;2023-05-10T12:58:30;3.72;;;1.67;;
64520;SDS011;50896;46.714;17.322;2023-05-10T13:01:01;4.03;;;1.60;;
64520;SDS011;50896;46.714;17.322;2023-05-10T13:03:28;4.30;;;1.40;;
64520;SDS011;50896;46.714;17.322;2023-05-10T13:05:56;3.70;;;1.90;;
64520;SDS011;50896;46.714;17.322;2023-05-10T13:08:22;2.63;;;1.60;;
64520;SDS011;50896;46.714;17.322;2023-05-10T13:10:49;3.17;;;1.20;;
64520;SDS011;50896;46.714;17.322;2023-05-10T13:13:16;3.50;;;1.60;;
64520;SDS011;50896;46.714;17.322;2023-05-10T13:15:44;6.63;;;1.27;;
64520;SDS011;50896;46.714;17.322;2023-05-10T13:18:11;3.00;;;1.48;;
64520;SDS011;50896;46.714;17.322;2023-05-10T13:20:38;5.22;;;1.48;;
64520;SDS011;50896;46.714;17.322;2023-05-10T13:23:05;2.45;;;1.50;;
64520;SDS011;50896;46.714;17.322;2023-05-10T13:25:31;1.70;;;1.40;;
64520;SDS011;50896;46.714;17.322;2023-05-10T13:27:58;3.13;;;1.40;;
64520;SDS011;50896;46.714;17.322;2023-05-10T13:30:25;1.80;;;1.42;;
64520;SDS011;50896;46.714;17.322;2023-05-10T13:32:52;2.95;;;1.67;;
64520;SDS011;50896;46.714;17.322;2023-05-10T13:35:19;4.40;;;1.77;;
64520;SDS011;50896;46.714;17.322;2023-05-10T13:37:46;3.15;;;1.42;;
64520;SDS011;50896;46.714;17.322;2023-05-10T13:40:12;3.20;;;1.52;;
64520;SDS011;50896;46.714;17.322;2023-05-10T13:42:42;5.13;;;1.48;;
64520;SDS011;50896;46.714;17.322;2023-05-10T13:45:09;6.03;;;1.90;;
64520;SDS011;50896;46.714;17.322;2023-05-10T13:47:38;2.33;;;1.65;;
64520;SDS011;50896;46.714;17.322;2023-05-10T13:50:05;4.65;;;1.70;;
64520;SDS011;50896;46.714;17.322;2023-05-10T13:52:33;2.53;;;1.40;;
64520;SDS011;50896;46.714;17.322;2023-05-10T13:55:00;4.80;;;1.98;;
64520;SDS011;50896;46.714;17.322;2023-05-10T13:57:26;2.55;;;1.20;;
64520;SDS011;50896;46.714;17.322;2023-05-10T13:59:55;9.75;;;1.60;;
64520;SDS011;50896;46.714;17.322;2023-05-10T14:02:23;4.03;;;1.67;;
64520;SDS011;50896;46.714;17.322;2023-05-10T14:04:51;2.92;;;1.48;;
64520;SDS011;50896;46.714;17.322;2023-05-10T14:07:17;4.38;;;1.35;;
64520;SDS011;50896;46.714;17.322;2023-05-10T14:09:44;2.95;;;1.55;;
64520;SDS011;50896;46.714;17.322;2023-05-10T14:12:11;3.70;;;1.40;;
64520;SDS011;50896;46.714;17.322;2023-05-10T14:14:38;4.00;;;1.70;;
64520;SDS011;50896;46.714;17.322;2023-05-10T14:17:05;2.20;;;1.60;;
64520;SDS011;50896;46.714;17.322;2023-05-10T14:19:32;2.70;;;1.40;;
64520;SDS011;50896;46.714;17.322;2023-05-10T14:22:00;5.57;;;1.77;;
64520;SDS011;50896;46.714;17.322;2023-05-10T14:24:27;2.75;;;1.45;;
64520;SDS011;50896;46.714;17.322;2023-05-10T14:26:53;3.58;;;1.50;;
64520;SDS011;50896;46.714;17.322;2023-05-10T14:29:20;3.92;;;2.40;;
64520;SDS011;50896;46.714;17.322;2023-05-10T14:31:48;2.63;;;1.60;;
64520;SDS011;50896;46.714;17.322;2023-05-10T14:34:15;4.22;;;1.67;;
64520;SDS011;50896;46.714;17.322;2023-05-10T14:36:41;5.60;;;1.80;;
64520;SDS011;50896;46.714;17.322;2023-05-10T14:39:08;2.97;;;1.80;;
64520;SDS011;50896;46.714;17.322;2023-05-10T14:41:36;8.02;;;1.40;;
64520;SDS011;50896;46.714;17.322;2023-05-10T14:44:04;3.35;;;1.67;;
64520;SDS011;50896;46.714;17.322;2023-05-10T14:46:31;3.20;;;1.45;;
64520;SDS011;50896;46.714;17.322;2023-05-10T14:48:58;4.18;;;1.55;;
64520;SDS011;50896;46.714;17.322;2023-05-10T14:51:24;4.10;;;1.52;;
64520;SDS011;50896;46.714;17.322;2023-05-10T14:53:51;1.40;;;1.30;;
64520;SDS011;50896;46.714;17.322;2023-05-10T14:56:18;1.75;;;1.35;;
64520;SDS011;50896;46.714;17.322;2023-05-10T14:58:45;5.95;;;1.40;;
64520;SDS011;50896;46.714;17.322;2023-05-10T15:01:11;2.65;;;1.77;;
64520;SDS011;50896;46.714;17.322;2023-05-10T15:03:39;8.73;;;1.50;;
64520;SDS011;50896;46.714;17.322;2023-05-10T15:06:07;3.35;;;1.50;;
64520;SDS011;50896;46.714;17.322;2023-05-10T15:08:34;4.43;;;1.45;;
64520;SDS011;50896;46.714;17.322;2023-05-10T15:11:01;7.35;;;2.33;;
64520;SDS011;50896;46.714;17.322;2023-05-10T15:13:29;5.20;;;1.67;;
64520;SDS011;50896;46.714;17.322;2023-05-10T15:15:55;5.88;;;1.75;;
64520;SDS011;50896;46.714;17.322;2023-05-10T15:18:22;3.85;;;1.60;;
64520;SDS011;50896;46.714;17.322;2023-05-10T15:20:52;4.10;;;1.77;;
64520;SDS011;50896;46.714;17.322;2023-05-10T15:23:19;3.03;;;1.48;;
64520;SDS011;50896;46.714;17.322;2023-05-10T15:25:45;2.30;;;1.45;;
64520;SDS011;50896;46.714;17.322;2023-05-10T15:28:12;3.42;;;1.58;;
64520;SDS011;50896;46.714;17.322;2023-05-10T15:30:39;2.95;;;1.40;;